createdAt,value
2019-05-06T00:02:18.209Z,7.96
2019-05-06T00:04:46.246Z,7.93
2019-05-06T00:07:14.713Z,7.91
2019-05-06T00:09:44.212Z,7.84
2019-05-06T00:12:14.376Z,7.78
2019-05-06T00:14:43.644Z,7.72
2019-05-06T00:17:14.427Z,7.65
2019-05-06T00:19:44.646Z,7.59
2019-05-06T00:22:14.258Z,7.58
2019-05-06T00:24:51.697Z,7.58
2019-05-06T00:27:29.514Z,7.56
2019-05-06T00:29:57.504Z,7.53
2019-05-06T00:32:26.085Z,7.51
2019-05-06T00:34:54.650Z,7.49
2019-05-06T00:37:24.082Z,7.48
2019-05-06T00:40:08.329Z,7.49
2019-05-06T00:42:39.827Z,7.48
2019-05-06T00:45:08.499Z,7.49
2019-05-06T00:47:36.632Z,7.52
2019-05-06T00:50:05.769Z,7.53
2019-05-06T00:52:35.366Z,7.56
2019-05-06T00:55:04.610Z,7.57
2019-05-06T00:57:43.783Z,7.55
2019-05-06T01:00:33.680Z,7.53
2019-05-06T01:03:04.110Z,7.49
2019-05-06T01:05:33.762Z,7.46
2019-05-06T01:08:03.901Z,7.44
2019-05-06T01:10:34.224Z,7.42
2019-05-06T01:13:17.472Z,7.40
2019-05-06T01:15:45.704Z,7.42
2019-05-06T01:18:15.013Z,7.38
2019-05-06T01:20:45.448Z,7.38
2019-05-06T01:23:14.344Z,7.41
2019-05-06T01:25:43.790Z,7.41
2019-05-06T01:28:13.798Z,7.39
2019-05-06T01:30:44.386Z,7.34
2019-05-06T01:33:14.477Z,7.31
2019-05-06T01:35:44.345Z,7.29
2019-05-06T01:38:24.383Z,7.28
2019-05-06T01:41:24.322Z,7.29
2019-05-06T01:43:55.340Z,7.27
2019-05-06T01:46:24.575Z,7.25
2019-05-06T01:48:53.612Z,7.27
2019-05-06T01:51:23.866Z,7.26
2019-05-06T01:54:00.105Z,7.26
2019-05-06T01:56:28.521Z,7.27
2019-05-06T01:58:59.199Z,7.26
2019-05-06T02:01:27.217Z,7.23
2019-05-06T02:03:55.413Z,7.24
2019-05-06T02:06:25.077Z,7.22
2019-05-06T02:08:54.102Z,7.23
2019-05-06T02:11:24.153Z,7.22
2019-05-06T02:13:53.794Z,7.20
2019-05-06T02:16:24.099Z,7.20
2019-05-06T02:18:55.415Z,7.22
2019-05-06T02:21:43.690Z,7.24
2019-05-06T02:24:19.241Z,7.22
2019-05-06T02:26:47.340Z,7.21
2019-05-06T02:29:17.925Z,7.21
2019-05-06T02:32:24.842Z,7.19
2019-05-06T02:34:57.451Z,7.19
2019-05-06T02:37:35.080Z,7.18
2019-05-06T02:40:07.463Z,7.18
2019-05-06T02:42:36.583Z,7.14
2019-05-06T02:45:05.063Z,7.14
2019-05-06T02:47:43.091Z,7.10
2019-05-06T02:50:14.188Z,7.10
2019-05-06T02:52:44.152Z,7.09
2019-05-06T02:55:13.037Z,7.06
2019-05-06T02:57:43.922Z,7.04
2019-05-06T03:00:14.792Z,7.03
2019-05-06T03:02:47.036Z,7.01
2019-05-06T03:05:14.557Z,6.96
2019-05-06T03:07:43.672Z,6.94
2019-05-06T03:10:14.317Z,6.93
2019-05-06T03:12:43.182Z,6.90
2019-05-06T03:15:16.273Z,6.86
2019-05-06T03:17:43.551Z,6.86
2019-05-06T03:20:23.697Z,6.88
2019-05-06T03:23:03.507Z,6.91
2019-05-06T03:25:33.312Z,6.88
2019-05-06T03:28:04.248Z,6.87
2019-05-06T03:30:35.658Z,6.86
2019-05-06T03:33:31.222Z,6.85
2019-05-06T03:35:44.107Z,6.82
2019-05-06T03:38:03.830Z,6.80
2019-05-06T03:40:36.051Z,6.79
2019-05-06T03:43:02.948Z,6.76
2019-05-06T03:45:47.728Z,6.72
2019-05-06T03:48:23.794Z,6.73
2019-05-06T03:50:55.520Z,6.76
2019-05-06T03:53:23.236Z,6.80
2019-05-06T03:55:54.072Z,6.83
2019-05-06T03:58:26.852Z,6.85
2019-05-06T04:00:55.665Z,6.86
2019-05-06T04:03:42.072Z,6.81
2019-05-06T04:05:56.013Z,6.74
2019-05-06T04:08:24.306Z,6.73
2019-05-06T04:10:54.053Z,6.74
2019-05-06T04:13:23.325Z,6.74
2019-05-06T04:16:03.784Z,6.77
2019-05-06T04:18:33.792Z,6.76
2019-05-06T04:21:24.003Z,6.74
2019-05-06T04:24:07.797Z,6.73
2019-05-06T04:26:53.454Z,6.72
2019-05-06T04:29:24.074Z,6.73
2019-05-06T04:31:54.109Z,6.74
2019-05-06T04:34:23.503Z,6.72
2019-05-06T04:36:53.315Z,6.72
2019-05-06T04:39:23.334Z,6.73
2019-05-06T04:41:53.855Z,6.76
2019-05-06T04:45:13.381Z,6.79
2019-05-06T04:47:39.373Z,6.80
2019-05-06T04:50:07.879Z,6.78
2019-05-06T04:52:35.855Z,6.75
2019-05-06T04:55:04.524Z,6.77
2019-05-06T04:57:33.772Z,6.80
2019-05-06T05:00:04.158Z,6.82
2019-05-06T05:02:33.673Z,6.84
2019-05-06T05:05:04.077Z,6.87
2019-05-06T05:07:33.447Z,6.87
2019-05-06T05:10:07.299Z,6.90
2019-05-06T05:12:47.213Z,6.91
2019-05-06T05:15:46.530Z,6.91
2019-05-06T05:18:18.559Z,6.90
2019-05-06T05:20:47.588Z,6.91
2019-05-06T05:23:16.761Z,6.90
2019-05-06T05:25:45.604Z,6.91
2019-05-06T05:28:15.005Z,6.94
2019-05-06T05:30:43.729Z,6.96
2019-05-06T05:33:12.486Z,6.94
2019-05-06T05:35:43.115Z,6.96
2019-05-06T05:38:12.808Z,6.95
2019-05-06T05:40:42.859Z,6.97
2019-05-06T05:43:29.375Z,6.98
2019-05-06T05:45:57.788Z,7.00
2019-05-06T05:48:35.080Z,7.02
2019-05-06T05:51:04.975Z,7.05
2019-05-06T05:53:33.197Z,7.11
2019-05-06T05:56:02.533Z,7.19
2019-05-06T05:58:32.997Z,7.27
2019-05-06T06:01:04.297Z,7.37
2019-05-06T06:03:33.426Z,7.46
2019-05-06T06:06:03.074Z,7.56
2019-05-06T06:08:32.238Z,7.67
2019-05-06T06:11:13.878Z,7.80
2019-05-06T06:13:43.732Z,7.92
2019-05-06T06:16:28.881Z,8.02
2019-05-06T06:19:26.122Z,8.13
2019-05-06T06:22:02.617Z,8.28
2019-05-06T06:24:42.884Z,8.45
2019-05-06T06:27:24.710Z,8.60
2019-05-06T06:29:55.829Z,8.75
2019-05-06T06:32:27.260Z,8.88
2019-05-06T06:35:19.652Z,9.03
2019-05-06T06:38:06.588Z,9.19
2019-05-06T06:40:34.945Z,9.37
2019-05-06T06:43:07.002Z,9.54
2019-05-06T06:45:35.668Z,9.70
2019-05-06T06:48:04.004Z,9.88
2019-05-06T06:50:32.970Z,10.05
2019-05-06T06:53:03.070Z,10.24
2019-05-06T06:55:31.887Z,10.38
2019-05-06T06:58:22.587Z,10.51
2019-05-06T07:01:12.372Z,10.63
2019-05-06T07:04:02.608Z,10.76
2019-05-06T07:06:43.382Z,10.88
2019-05-06T07:09:12.534Z,10.99
2019-05-06T07:11:42.874Z,11.11
2019-05-06T07:14:10.826Z,11.27
2019-05-06T07:16:38.871Z,11.40
2019-05-06T07:19:07.268Z,11.59
2019-05-06T07:21:52.342Z,11.78
2019-05-06T07:24:22.681Z,11.96
2019-05-06T07:26:58.258Z,12.16
2019-05-06T07:29:26.932Z,12.38
2019-05-06T07:31:55.041Z,12.63
2019-05-06T07:34:23.067Z,12.86
2019-05-06T07:36:52.459Z,13.08
2019-05-06T07:39:23.740Z,13.33
2019-05-06T07:41:57.071Z,13.59
2019-05-06T07:44:53.857Z,13.81
2019-05-06T07:47:53.085Z,14.04
2019-05-06T07:50:22.370Z,14.32
2019-05-06T07:53:06.281Z,14.59
2019-05-06T07:55:35.375Z,14.84
2019-05-06T07:58:04.525Z,15.10
2019-05-06T08:00:33.225Z,15.32
2019-05-06T08:03:02.774Z,15.49
2019-05-06T08:05:32.376Z,15.62
2019-05-06T08:08:03.523Z,15.69
2019-05-06T08:10:33.134Z,15.77
2019-05-06T08:13:03.117Z,15.76
2019-05-06T08:15:32.628Z,15.83
2019-05-06T08:18:03.446Z,15.94
2019-05-06T08:20:38.436Z,16.10
2019-05-06T08:23:43.890Z,16.27
2019-05-06T08:26:24.023Z,16.46
2019-05-06T08:28:54.039Z,16.68
2019-05-06T08:31:22.733Z,16.88
2019-05-06T08:33:52.594Z,17.07
2019-05-06T08:36:32.811Z,17.30
2019-05-06T08:39:03.047Z,17.55
2019-05-06T08:41:33.306Z,17.81
2019-05-06T08:44:02.650Z,18.04
2019-05-06T08:46:32.730Z,18.23
2019-05-06T08:49:03.128Z,18.42
2019-05-06T08:51:46.507Z,18.55
2019-05-06T08:54:24.704Z,18.70
2019-05-06T08:56:52.989Z,18.89
2019-05-06T08:59:21.052Z,19.03
2019-05-06T09:01:53.189Z,19.21
2019-05-06T09:04:23.059Z,19.40
2019-05-06T09:06:53.162Z,19.56
2019-05-06T09:09:22.421Z,19.74
2019-05-06T09:11:53.547Z,19.96
2019-05-06T09:14:23.240Z,20.17
2019-05-06T09:16:53.890Z,20.38
2019-05-06T09:19:23.354Z,20.62
2019-05-06T09:21:53.329Z,20.87
2019-05-06T09:24:23.023Z,21.09
2019-05-06T09:27:03.026Z,21.34
2019-05-06T09:29:42.715Z,21.56
2019-05-06T09:32:15.949Z,21.82
2019-05-06T09:34:48.979Z,21.96
2019-05-06T09:37:18.692Z,22.04
2019-05-06T09:39:47.459Z,22.13
2019-05-06T09:42:16.004Z,22.16
2019-05-06T09:44:45.933Z,22.14
2019-05-06T09:47:42.208Z,22.05
2019-05-06T09:50:13.007Z,21.93
2019-05-06T09:52:42.694Z,21.75
2019-05-06T09:55:22.172Z,21.59
2019-05-06T09:58:03.428Z,21.39
2019-05-06T10:00:33.631Z,21.22
2019-05-06T10:03:03.989Z,21.15
2019-05-06T10:05:31.960Z,21.14
2019-05-06T10:08:00.262Z,21.24
2019-05-06T10:10:28.744Z,21.44
2019-05-06T10:12:57.121Z,21.66
2019-05-06T10:15:25.557Z,21.96
2019-05-06T10:18:12.716Z,22.24
2019-05-06T10:20:43.137Z,22.50
2019-05-06T10:23:12.886Z,22.79
2019-05-06T10:25:43.911Z,22.99
2019-05-06T10:28:24.282Z,23.12
2019-05-06T10:30:52.477Z,23.24
2019-05-06T10:33:22.424Z,23.38
2019-05-06T10:35:52.887Z,23.58
2019-05-06T10:38:53.108Z,23.79
2019-05-06T10:41:27.846Z,23.96
2019-05-06T10:44:48.683Z,24.09
2019-05-06T10:47:16.737Z,24.22
2019-05-06T10:49:45.105Z,24.38
2019-05-06T10:52:25.143Z,24.47
2019-05-06T10:54:53.496Z,24.54
2019-05-06T10:57:35.225Z,24.58
2019-05-06T11:00:04.725Z,24.56
2019-05-06T11:03:08.537Z,24.63
2019-05-06T11:05:36.757Z,24.73
2019-05-06T11:08:04.846Z,24.85
2019-05-06T11:10:40.871Z,24.98
2019-05-06T11:13:04.322Z,25.10
2019-05-06T11:15:33.521Z,25.26
2019-05-06T11:18:04.793Z,25.46
2019-05-06T11:20:33.580Z,25.61
2019-05-06T11:23:03.199Z,25.68
2019-05-06T11:25:32.277Z,25.64
2019-05-06T11:28:02.750Z,25.59
2019-05-06T11:30:49.131Z,25.55
2019-05-06T11:33:37.179Z,25.51
2019-05-06T11:36:32.312Z,25.40
2019-05-06T11:39:00.454Z,25.26
2019-05-06T11:41:28.708Z,25.11
2019-05-06T11:43:56.747Z,24.98
2019-05-06T11:46:24.779Z,24.89
2019-05-06T11:48:53.971Z,24.80
2019-05-06T11:51:24.033Z,24.74
2019-05-06T11:53:54.051Z,24.74
2019-05-06T11:56:23.053Z,24.71
2019-05-06T11:58:53.521Z,24.63
2019-05-06T12:01:35.001Z,24.57
2019-05-06T12:04:15.231Z,24.53
2019-05-06T12:06:52.440Z,24.57
2019-05-06T12:09:22.221Z,24.67
2019-05-06T12:11:52.633Z,24.73
2019-05-06T12:14:22.510Z,24.62
2019-05-06T12:16:54.863Z,24.43
2019-05-06T12:19:22.555Z,24.21
2019-05-06T12:21:52.580Z,24.00
2019-05-06T12:24:22.768Z,23.76
2019-05-06T12:26:52.182Z,23.47
2019-05-06T12:29:20.335Z,23.18
2019-05-06T12:31:55.043Z,22.86
2019-05-06T12:34:23.038Z,22.57
2019-05-06T12:36:54.975Z,22.28
2019-05-06T12:39:28.730Z,21.95
2019-05-06T12:42:16.450Z,21.70
2019-05-06T12:44:56.894Z,21.49
2019-05-06T12:47:32.807Z,21.22
2019-05-06T12:50:02.739Z,20.97
2019-05-06T12:52:32.309Z,20.72
2019-05-06T12:55:16.963Z,20.51
2019-05-06T12:57:34.597Z,20.33
2019-05-06T13:00:05.599Z,20.15
2019-05-06T13:02:33.908Z,20.00
2019-05-06T13:05:04.166Z,19.85
2019-05-06T13:07:39.552Z,19.70
2019-05-06T13:10:07.837Z,19.60
2019-05-06T13:12:38.855Z,19.52
2019-05-06T13:15:08.815Z,19.44
2019-05-06T13:17:36.916Z,19.38
2019-05-06T13:20:08.029Z,19.33
2019-05-06T13:23:15.437Z,19.30
2019-05-06T13:25:42.035Z,19.28
2019-05-06T13:28:12.781Z,19.27
2019-05-06T13:30:43.173Z,19.25
2019-05-06T13:33:22.868Z,19.24
2019-05-06T13:35:52.616Z,19.25
2019-05-06T13:38:22.413Z,19.30
2019-05-06T13:40:54.648Z,19.31
2019-05-06T13:43:38.662Z,19.38
2019-05-06T13:46:14.731Z,19.44
2019-05-06T13:48:49.042Z,19.54
2019-05-06T13:51:19.813Z,19.63
2019-05-06T13:53:47.918Z,19.73
2019-05-06T13:56:16.026Z,19.83
2019-05-06T13:58:44.376Z,19.92
2019-05-06T14:01:16.036Z,20.02
2019-05-06T14:03:43.927Z,20.13
2019-05-06T14:06:12.380Z,20.24
2019-05-06T14:08:42.314Z,20.33
2019-05-06T14:11:10.342Z,20.43
2019-05-06T14:13:38.439Z,20.53
2019-05-06T14:16:06.507Z,20.59
2019-05-06T14:18:37.551Z,20.69
2019-05-06T14:21:06.244Z,20.79
2019-05-06T14:23:34.654Z,20.83
2019-05-06T14:26:24.008Z,20.88
2019-05-06T14:28:58.930Z,20.96
2019-05-06T14:31:32.805Z,21.03
2019-05-06T14:34:03.320Z,21.08
2019-05-06T14:36:32.795Z,21.17
2019-05-06T14:39:04.607Z,21.25
2019-05-06T14:41:33.851Z,21.34
2019-05-06T14:44:02.657Z,21.44
2019-05-06T14:47:09.569Z,21.56
2019-05-06T14:49:38.532Z,21.65
2019-05-06T14:52:06.766Z,21.69
2019-05-06T14:54:48.879Z,21.71
2019-05-06T14:57:18.575Z,21.72
2019-05-06T14:59:51.005Z,21.70
2019-05-06T15:02:25.328Z,21.65
2019-05-06T15:04:53.480Z,21.60
2019-05-06T15:07:23.191Z,21.49
2019-05-06T15:10:02.530Z,21.36
2019-05-06T15:12:22.953Z,21.24
2019-05-06T15:14:52.788Z,21.14
2019-05-06T15:17:22.938Z,21.02
2019-05-06T15:19:52.614Z,20.92
2019-05-06T15:22:22.522Z,20.80
2019-05-06T15:24:53.574Z,20.69
2019-05-06T15:27:22.793Z,20.61
2019-05-06T15:29:55.543Z,20.54
2019-05-06T15:32:35.263Z,20.45
2019-05-06T15:35:33.089Z,20.34
2019-05-06T15:38:13.223Z,20.23
2019-05-06T15:40:43.901Z,20.18
2019-05-06T15:43:12.703Z,20.17
2019-05-06T15:45:42.956Z,20.16
2019-05-06T15:48:12.840Z,20.16
2019-05-06T15:50:45.402Z,20.14
2019-05-06T15:53:12.598Z,20.10
2019-05-06T15:55:40.853Z,20.10
2019-05-06T15:58:09.265Z,20.09
2019-05-06T16:00:37.649Z,20.08
2019-05-06T16:03:07.015Z,20.01
2019-05-06T16:05:35.481Z,19.87
2019-05-06T16:08:04.837Z,19.77
2019-05-06T16:10:50.422Z,19.69
2019-05-06T16:13:03.496Z,19.63
2019-05-06T16:15:33.675Z,19.59
2019-05-06T16:18:04.504Z,19.58
2019-05-06T16:20:33.222Z,19.57
2019-05-06T16:23:14.331Z,19.57
2019-05-06T16:25:44.877Z,19.55
2019-05-06T16:28:14.927Z,19.54
2019-05-06T16:30:43.173Z,19.52
2019-05-06T16:33:15.329Z,19.50
2019-05-06T16:35:43.367Z,19.49
2019-05-06T16:38:13.209Z,19.51
2019-05-06T16:40:45.011Z,19.51
2019-05-06T16:43:12.595Z,19.49
2019-05-06T16:45:42.742Z,19.36
2019-05-06T16:48:12.953Z,19.25
2019-05-06T16:50:42.940Z,19.13
2019-05-06T16:53:12.191Z,19.00
2019-05-06T16:56:13.163Z,18.94
2019-05-06T16:58:47.252Z,18.92
2019-05-06T17:01:15.370Z,18.91
2019-05-06T17:04:08.199Z,18.92
2019-05-06T17:06:37.827Z,18.91
2019-05-06T17:09:18.393Z,18.88
2019-05-06T17:11:40.145Z,18.87
2019-05-06T17:14:12.190Z,18.87
2019-05-06T17:16:42.378Z,18.86
2019-05-06T17:19:12.497Z,18.83
2019-05-06T17:21:42.315Z,18.80
2019-05-06T17:24:12.855Z,18.74
2019-05-06T17:26:42.662Z,18.67
2019-05-06T17:29:36.539Z,18.61
2019-05-06T17:32:22.249Z,18.57
2019-05-06T17:34:52.730Z,18.51
2019-05-06T17:37:38.955Z,18.45
2019-05-06T17:40:11.716Z,18.38
2019-05-06T17:42:38.909Z,18.28
2019-05-06T17:45:26.908Z,18.20
2019-05-06T17:48:02.766Z,18.10
2019-05-06T17:50:32.643Z,18.00
2019-05-06T17:53:01.290Z,17.92
2019-05-06T17:55:32.265Z,17.85
2019-05-06T17:58:02.333Z,17.77
2019-05-06T18:00:32.340Z,17.68
2019-05-06T18:03:02.454Z,17.60
2019-05-06T18:05:32.441Z,17.51
2019-05-06T18:08:02.393Z,17.42
2019-05-06T18:10:30.488Z,17.34
2019-05-06T18:12:58.501Z,17.27
2019-05-06T18:15:26.757Z,17.21
2019-05-06T18:17:54.863Z,17.13
2019-05-06T18:20:23.192Z,17.06
2019-05-06T18:22:52.444Z,16.98
2019-05-06T18:25:22.921Z,16.90
2019-05-06T18:27:52.692Z,16.82
2019-05-06T18:30:26.898Z,16.76
2019-05-06T18:32:52.090Z,16.70
2019-05-06T18:35:22.947Z,16.65
2019-05-06T18:37:52.162Z,16.60
2019-05-06T18:40:20.415Z,16.54
2019-05-06T18:42:49.023Z,16.47
2019-05-06T18:45:35.182Z,16.40
2019-05-06T18:48:04.693Z,16.34
2019-05-06T18:50:33.923Z,16.28
2019-05-06T18:53:02.591Z,16.22
2019-05-06T18:55:33.073Z,16.16
2019-05-06T18:58:02.273Z,16.11
2019-05-06T19:00:32.005Z,16.06
2019-05-06T19:03:02.512Z,16.01
2019-05-06T19:05:36.580Z,15.96
2019-05-06T19:08:24.517Z,15.93
2019-05-06T19:10:53.244Z,15.88
2019-05-06T19:13:22.357Z,15.81
2019-05-06T19:15:52.631Z,15.75
2019-05-06T19:18:22.428Z,15.70
2019-05-06T19:20:52.955Z,15.66
2019-05-06T19:23:22.565Z,15.61
2019-05-06T19:25:51.954Z,15.56
2019-05-06T19:28:21.968Z,15.51
2019-05-06T19:30:51.662Z,15.47
2019-05-06T19:33:34.229Z,15.41
2019-05-06T19:36:09.395Z,15.36
2019-05-06T19:38:37.589Z,15.31
2019-05-06T19:41:07.422Z,15.26
2019-05-06T19:43:35.677Z,15.19
2019-05-06T19:46:03.943Z,15.11
2019-05-06T19:48:32.834Z,15.02
2019-05-06T19:51:03.030Z,14.91
2019-05-06T19:53:32.294Z,14.82
2019-05-06T19:56:02.776Z,14.75
2019-05-06T19:58:31.737Z,14.68
2019-05-06T20:01:10.889Z,14.62
2019-05-06T20:03:39.069Z,14.60
2019-05-06T20:06:26.933Z,14.53
2019-05-06T20:09:09.808Z,14.49
2019-05-06T20:11:42.662Z,14.46
2019-05-06T20:14:15.828Z,14.43
2019-05-06T20:16:44.568Z,14.40
2019-05-06T20:19:27.632Z,14.35
2019-05-06T20:21:43.361Z,14.30
2019-05-06T20:24:12.808Z,14.28
2019-05-06T20:26:43.004Z,14.26
2019-05-06T20:29:11.022Z,14.21
2019-05-06T20:31:39.430Z,14.16
2019-05-06T20:34:07.497Z,14.11
2019-05-06T20:36:35.608Z,14.06
2019-05-06T20:39:08.301Z,13.99
2019-05-06T20:41:36.571Z,13.94
2019-05-06T20:44:04.622Z,13.85
2019-05-06T20:46:33.130Z,13.79
2019-05-06T20:49:02.429Z,13.73
2019-05-06T20:51:32.931Z,13.70
2019-05-06T20:54:02.853Z,13.66
2019-05-06T20:56:32.727Z,13.61
2019-05-06T20:59:02.435Z,13.56
2019-05-06T21:01:32.688Z,13.52
2019-05-06T21:04:04.961Z,13.48
2019-05-06T21:06:34.247Z,13.42
2019-05-06T21:09:02.941Z,13.36
2019-05-06T21:11:33.089Z,13.32
2019-05-06T21:14:02.279Z,13.26
2019-05-06T21:16:32.019Z,13.20
2019-05-06T21:19:03.165Z,13.15
2019-05-06T21:21:31.969Z,13.09
2019-05-06T21:24:02.027Z,13.04
2019-05-06T21:26:30.328Z,13.00
2019-05-06T21:29:00.130Z,12.94
2019-05-06T21:31:28.399Z,12.88
2019-05-06T21:33:56.753Z,12.82
2019-05-06T21:36:24.785Z,12.76
2019-05-06T21:38:52.772Z,12.70
2019-05-06T21:41:22.183Z,12.67
2019-05-06T21:43:50.465Z,12.63
2019-05-06T21:46:19.871Z,12.64
2019-05-06T21:48:47.888Z,12.60
2019-05-06T21:51:15.956Z,12.58
2019-05-06T21:53:43.937Z,12.55
2019-05-06T21:56:13.045Z,12.53
2019-05-06T21:58:42.781Z,12.51
2019-05-06T22:01:11.583Z,12.46
2019-05-06T22:03:39.643Z,12.42
2019-05-06T22:06:07.730Z,12.39
2019-05-06T22:08:35.773Z,12.36
2019-05-06T22:11:03.921Z,12.32
2019-05-06T22:13:33.280Z,12.29
2019-05-06T22:16:02.346Z,12.25
2019-05-06T22:18:31.982Z,12.19
2019-05-06T22:21:18.002Z,12.16
2019-05-06T22:23:57.125Z,12.15
2019-05-06T22:26:26.777Z,12.14
2019-05-06T22:28:56.639Z,12.13
2019-05-06T22:31:25.388Z,12.12
2019-05-06T22:33:53.736Z,12.10
2019-05-06T22:36:22.756Z,12.07
2019-05-06T22:38:53.026Z,12.05
2019-05-06T22:41:23.310Z,12.01
2019-05-06T22:43:53.783Z,11.99
2019-05-06T22:46:23.432Z,11.94
2019-05-06T22:48:54.119Z,11.91
2019-05-06T22:51:23.760Z,11.88
2019-05-06T22:53:53.205Z,11.84
2019-05-06T22:56:23.033Z,11.81
2019-05-06T22:58:52.387Z,11.76
2019-05-06T23:01:39.168Z,11.70
2019-05-06T23:04:08.159Z,11.67
2019-05-06T23:06:36.470Z,11.64
2019-05-06T23:09:07.778Z,11.60
2019-05-06T23:11:37.647Z,11.57
2019-05-06T23:14:05.703Z,11.55
2019-05-06T23:16:34.979Z,11.54
2019-05-06T23:19:03.476Z,11.49
2019-05-06T23:21:33.701Z,11.45
2019-05-06T23:24:02.105Z,11.44
2019-05-06T23:26:30.245Z,11.41
2019-05-06T23:28:58.385Z,11.40
2019-05-06T23:31:26.447Z,11.36
2019-05-06T23:33:54.601Z,11.29
2019-05-06T23:36:22.950Z,11.23
2019-05-06T23:39:58.276Z,11.20
2019-05-06T23:43:22.181Z,11.16
2019-05-06T23:46:45.707Z,11.10
2019-05-06T23:50:09.319Z,11.01
2019-05-06T23:53:32.580Z,10.91
2019-05-06T23:56:42.886Z,10.79
2019-05-06T23:59:14.400Z,10.74
